NCAR-RAP Real-Time Weather Data

Output produced by METARs form (14 October 2019  23:30 UTC)
found at http://weather.rap.ucar.edu/surface/
 
KLOU 142253Z 22004KT 10SM CLR 20/00 A3008 RMK AO2 SLP184 T02000000
KLOU 142153Z 21005KT 10SM CLR 21/00 A3007 RMK AO2 SLP181 T02060000
KLOU 142053Z 27006KT 10SM CLR 22/M01 A3007 RMK AO2 SLP181 T02171006 56013
KLOU 141953Z 00000KT 10SM CLR 21/M01 A3007 RMK AO2 SLP181 T02111006
KLOU 141853Z VRB04KT 10SM CLR 21/00 A3008 RMK AO2 SLP186 T02110000
KLOU 141753Z 28008G16KT 10SM CLR 21/01 A3011 RMK AO2 SLP194 T02060011 10206 20067 58008
KLOU 141653Z 25006KT 10SM CLR 19/02 A3013 RMK AO2 SLP201 T01890017
KLOU 141553Z 21005KT 10SM CLR 17/04 A3013 RMK AO2 SLP203 T01720039
KLOU 141453Z 19003KT 10SM CLR 14/06 A3013 RMK AO2 SLP203 T01440056 51014
KLOU 141353Z 20005KT 10SM CLR 12/06 A3013 RMK AO2 SLP202 T01220056
KLOU 141253Z 17003KT 10SM CLR 09/05 A3010 RMK AO2 SLP194 T00890050
KLOU 141153Z 00000KT 10SM CLR 07/04 A3009 RMK AO2 SLP188 T00670039 10089 20061 53019
KLOU 141053Z 00000KT 10SM CLR 06/03 A3007 RMK AO2 SLP182 T00610033
KLOU 140953Z AUTO 00000KT 10SM CLR 07/03 A3005 RMK AO2 SLP174 T00670033
KLOU 140853Z AUTO 00000KT 10SM CLR 07/04 A3003 RMK AO2 SLP168 T00720039 53007
KLOU 140753Z AUTO 00000KT 10SM CLR 08/04 A3002 RMK AO2 SLP164 T00830039
KLOU 140653Z AUTO 00000KT 10SM CLR 08/04 A3002 RMK AO2 SLP163 T00830039
KLOU 140553Z AUTO 00000KT 10SM CLR 09/04 A3001 RMK AO2 SLP160 T00890039 10172 20089 51005
KLOU 140453Z AUTO 20005KT 10SM CLR 11/03 A3000 RMK AO2 SLP158 T01110033 402110028
KLOU 140353Z AUTO 20004KT 10SM CLR 12/04 A3000 RMK AO2 SLP159 T01170039
KLOU 140253Z AUTO 18006KT 10SM CLR 09/04 A2999 RMK AO2 SLP157 T00890039 50012
KLOU 140153Z 15003KT 10SM CLR 11/04 A3000 RMK AO2 SLP158 T01110044
KLOU 140053Z 00000KT 10SM CLR 13/03 A2998 RMK AO2 SLP151 T01330033
KLOU 132353Z 22005KT 10SM CLR 16/02 A2996 RMK AO2 SLP145 T01610022 10211 20161 53003
KLOU 132253Z 22008KT 10SM CLR 18/02 A2995 RMK AO2 SLP143 T01780022
KLOU 132153Z 22011KT 10SM CLR 20/02 A2995 RMK AO2 SLP141 T02000017
KLOU 132053Z 19010KT 10SM CLR 21/02 A2995 RMK AO2 SLP141 T02060022 56015
KLOU 131953Z AUTO 22006KT 10SM CLR 20/02 A2996 RMK AO2 SLP143 T02000022
KLOU 131853Z 20009KT 10SM CLR 19/02 A2997 RMK AO2 SLP146 T01940017
KLOU 131753Z 20008KT 10SM CLR 18/02 A2999 RMK AO2 SLP156 T01830017 10183 20028 58023
KLOU 131653Z 21008KT 10SM CLR 17/02 A3002 RMK AO2 SLP165 T01670017
KLOU 131553Z VRB05KT 10SM CLR 14/03 A3004 RMK AO2 SLP174 T01440033
KLOU 131453Z 19006KT 10SM CLR 12/03 A3006 RMK AO2 SLP181 T01220033 51002
KLOU 131353Z 17004KT 10SM CLR 08/03 A3006 RMK AO2 SLP180 T00780033
KLOU 131253Z 16003KT 10SM CLR 05/02 A3007 RMK AO2 SLP182 T00500022
KLOU 131153Z 00000KT 10SM CLR 03/01 A3006 RMK AO2 SLP180 T00280006 10061 20028 53002
KLOU 131053Z 00000KT 10SM CLR 03/01 A3006 RMK AO2 SLP179 T00330011
KLOU 130953Z AUTO 00000KT 10SM CLR 04/02 A3005 RMK AO2 SLP175 T00390017
KLOU 130853Z AUTO 00000KT 10SM CLR 04/01 A3005 RMK AO2 SLP177 T00390011 55002
KLOU 130753Z AUTO 00000KT 10SM CLR 06/02 A3004 RMK AO2 SLP174 T00560017
KLOU 130653Z AUTO 00000KT 10SM CLR 05/02 A3005 RMK AO2 SLP176 T00500017
KLOU 130553Z AUTO 00000KT 10SM CLR 06/02 A3006 RMK AO2 SLP178 T00560017 10111 20056 56010
KLOU 130453Z AUTO 15004KT 10SM CLR 07/02 A3006 RMK AO2 SLP181 T00720017 401440033
KLOU 130353Z AUTO 18003KT 10SM CLR 07/01 A3008 RMK AO2 SLP187 T00720011
KLOU 130253Z AUTO 17004KT 10SM CLR 08/01 A3009 RMK AO2 SLP189 T00830011 58003
KLOU 130153Z 15003KT 10SM CLR 09/02 A3010 RMK AO2 SLP193 T00890017
KLOU 130053Z 00000KT 10SM CLR 08/02 A3009 RMK AO2 SLP192 T00830017
KLOU 122353Z 00000KT 10SM CLR 11/M01 A3010 RMK AO2 SLP193 T01111006 10144 20106 55011